Flight Track Log - Related Links

Times and Time Zones

All times are in EDT time to prevent confusion due to time zone crossing. See the ASQ5941 flight status page for this flight to view local times or setup timezone preferences in your user account.

Time Position Orientation Groundspeed Altitude Reporting Facility
EDT Latitude Longitude Course Direction KTS MPH feet Rate Location/Type
Fri 03:04:22 PM 42.0000 -87.8333 80° East 182 209 3,300  Level Chicago TRACON
Fri 03:05:16 PM 42.0167 -87.7500 75° East 245 282 4,500 1,974 Climbing Chicago TRACON
Fri 03:06:00 PM 42.0428 -87.4462 83° East  Level FlightAware Approximate
Fri 03:06:57 PM 42.0308 -87.5856 83° East 276 318 8,400  Level Chicago Center
Fri 03:07:00 PM 42.0617 -87.2907 78° East  Level FlightAware Approximate
Fri 03:07:59 PM 42.0467 -87.4806 78° East 284 327 10,200  Level Chicago Center
Fri 03:08:00 PM 42.0856 -87.1362 77° East  Level FlightAware Approximate
Fri 03:09:00 PM 42.1013 -86.9892 80° East  Level FlightAware Approximate
Fri 03:09:01 PM 42.0644 -87.3667 78° East 304 350 12,200  Level Chicago Center
Fri 03:10:03 PM 42.0836 -87.2483 78° East 319 367 13,700 1,065 Climbing Chicago Center
Fri 03:11:05 PM 42.1036 -87.1183 78° East 345 397 14,400 968 Climbing Chicago Center
Fri 03:12:07 PM 42.1156 -86.9792 83° East 371 427 15,700 1,355 Climbing Chicago Center
Fri 03:13:09 PM 42.1211 -86.8047 87° East 385 443 17,200 1,161 Climbing Chicago Center
Fri 03:14:11 PM 42.1267 -86.6556 87° East 387 445 18,100 912 Climbing Chicago Center
Fri 03:15:14 PM 42.1319 -86.5075 87° East 393 452 19,100 960 Climbing Chicago Center
Fri 03:16:16 PM 42.1361 -86.3550 88° East 405 466 20,100 968 Climbing Chicago Center
Fri 03:17:18 PM 42.1414 -86.1989 87° East 415 478 21,100 919 Climbing Chicago Center
Fri 03:18:20 PM 42.1428 -86.0378 89° East 426 490 22,000 1,065 Climbing Chicago Center
Fri 03:19:22 PM 42.1419 -85.8561 90° East 431 496 23,300 1,161 Climbing Chicago Center
Fri 03:20:24 PM 42.1406 -85.6919 91° East 433 498 24,400 1,113 Climbing Chicago Center
Fri 03:21:26 PM 42.1386 -85.5350 91° East 433 498 25,600 1,161 Climbing Chicago Center
Fri 03:22:28 PM 42.1375 -85.3753 90° East 431 496 26,800 1,258 Climbing Chicago Center
Fri 03:23:30 PM 42.1347 -85.1842 91° East 429 494 28,200 1,161 Climbing Chicago Center
Fri 03:24:32 PM 42.1342 -85.0358 90° East 431 496 29,200 1,082 Climbing Cleveland Center
Fri 03:25:32 PM 42.1339 -84.8817 90° East 418 481 30,400 1,200 Climbing Cleveland Center
Fri 03:26:32 PM 42.1292 -84.7217 92° East 418 481 31,600 1,150 Climbing Cleveland Center
Fri 03:27:32 PM 42.1267 -84.5619 91° East 428 493 32,700 1,150 Climbing Cleveland Center
Fri 03:28:32 PM 42.1339 -84.4111 86° East 423 487 33,900 1,150 Climbing Cleveland Center
Fri 03:29:32 PM 42.1456 -84.2381 85° East 410 472 35,000 550 Climbing Cleveland Center
Fri 03:30:32 PM 42.1486 -84.0758 88° East 417 480 35,000  Level Cleveland Center
Fri 03:31:32 PM 42.1453 -83.9047 91° East 437 503 35,000  Level Cleveland Center
Fri 03:32:32 PM 42.1419 -83.7253 91° East 450 518 35,000  Level Cleveland Center
Fri 03:33:33 PM 42.1367 -83.5403 92° East 470 541 35,000  Level Cleveland Center
Fri 03:34:32 PM 42.1328 -83.3581 92° East 483 556 35,000  Level Cleveland Center
Fri 03:35:32 PM 42.1267 -83.1728 92° East 488 562 35,000  Level Cleveland Center
Fri 03:36:32 PM 42.1244 -82.9908 91° East 488 562 35,000  Level Cleveland Center
Fri 03:37:32 PM 42.1175 -82.8086 93° East 488 562 35,000  Level Cleveland Center
Fri 03:38:32 PM 42.1128 -82.6264 92° East 488 562 35,000  Level Cleveland Center
Fri 03:39:32 PM 42.1136 -82.4417 90° East 488 562 35,000  Level Cleveland Center
Fri 03:40:32 PM 42.0978 -82.2594 97° East 488 562 35,000  Level Cleveland Center
Fri 03:41:32 PM 42.0939 -82.0803 92° East 483 556 35,000  Level Cleveland Center
Fri 03:42:33 PM 42.0900 -81.8925 92° East 483 556 35,000  Level Cleveland Center
Fri 03:43:32 PM 42.0817 -81.7133 94° East 483 556 35,000  Level Cleveland Center
Fri 03:44:32 PM 42.0747 -81.5314 93° East 483 556 35,000  Level Cleveland Center
Fri 03:45:32 PM 42.0678 -81.3494 93° East 483 556 35,000  Level Cleveland Center
Fri 03:46:32 PM 42.0586 -81.1647 94° East 483 556 35,000  Level Cleveland Center
Fri 03:47:33 PM 42.0511 -80.9831 93° East 483 556 35,000  Level Cleveland Center
Fri 03:48:33 PM 42.0411 -80.8208 95° East 477 549 35,000  Level Cleveland Center
Fri 03:49:32 PM 42.0350 -80.6392 93° East 483 556 35,000  Level Cleveland Center
Fri 03:50:33 PM 42.0267 -80.4603 94° East 477 549 35,000  Level Cleveland Center
Fri 03:51:32 PM 42.0181 -80.2786 94° East 482 555 35,000  Level Cleveland Center
Fri 03:52:32 PM 42.0069 -80.0942 95° East 482 555 35,000  Level Cleveland Center
Fri 03:53:32 PM 41.9975 -79.8958 94° East 482 555 35,000  Level Cleveland Center
Fri 03:54:32 PM 41.9881 -79.7089 94° East 482 555 35,000  Level Cleveland Center
Fri 03:55:32 PM 41.9761 -79.5275 95° East 482 555 35,000  Level Cleveland Center
Fri 03:56:33 PM 41.9636 -79.3433 95° East 487 560 35,000 -99 Level Cleveland Center
Fri 03:57:33 PM 41.9533 -79.1592 94° East 492 566 34,800 -1,000 Descending Cleveland Center
Fri 03:58:33 PM 41.9406 -78.9781 95° East 492 566 33,000 -1,800 Descending Cleveland Center
Fri 03:59:33 PM 41.9314 -78.7942 94° East 492 566 31,200 -1,916 Descending Cleveland Center
Fri 04:00:32 PM 41.9181 -78.6075 95° East 498 573 29,200 -2,000 Descending Cleveland Center
Fri 04:01:33 PM 41.9042 -78.4153 95° East 503 579 27,200 -2,000 Descending Cleveland Center
Fri 04:02:32 PM 41.8919 -78.2261 95° East 503 579 25,200 -1,900 Descending Cleveland Center
Fri 04:03:33 PM 41.8775 -78.0369 96° East 508 585 23,400 -1,257 Descending Cleveland Center
Fri 04:04:17 PM 41.8703 -77.9267 95° East 503 579 23,000 -231 Descending New York Center
Fri 04:05:17 PM 41.8267 -77.7522 108° East 498 573 23,000  Level New York Center
Fri 04:06:17 PM 41.7592 -77.5836 118° Southeast 494 568 23,000  Level New York Center
Fri 04:07:18 PM 41.6978 -77.4164 116° Southeast 501 577 23,000  Level New York Center
Fri 04:08:19 PM 41.6744 -77.2389 100° East 496 571 23,000 -443 Level New York Center
Fri 04:09:20 PM 41.6547 -77.0592 98° East 485 558 22,100 -1,678 Descending New York Center
Fri 04:10:17 PM 41.6369 -76.8856 98° East 473 544 19,700 -2,410 Descending New York Center
Fri 04:11:17 PM 41.6197 -76.7286 98° East 453 521 17,400 -2,430 Descending New York Center
Fri 04:12:18 PM 41.5989 -76.5603 99° East 420 483 14,800 -2,479 Descending New York Center
Fri 04:13:18 PM 41.5864 -76.4342 98° East 397 457 12,400 -2,370 Descending New York Center
Fri 04:14:17 PM 41.5700 -76.2942 99° East 391 450 10,100 -1,412 Descending New York Center
Fri 04:15:17 PM 41.5553 -76.1628 98° East 343 395 9,600 -793 Descending New York Center
Fri 04:16:18 PM 41.5031 -76.0700 127° Southeast 288 331 8,500 -1,388 Descending New York Center
Fri 04:17:18 PM 41.4478 -76.0019 137° Southeast 303 349 6,800 -1,550 Descending New York Center
Fri 04:18:18 PM 41.3844 -75.9250 138° Southeast 298 343 5,400 -1,190 Descending New York Center
Fri 04:19:19 PM 41.3244 -75.8736 147° Southeast 281 323 4,400 -857 Descending New York Center
Fri 04:20:17 PM 41.2625 -75.8606 171° South 253 291 3,700 -724 Descending New York Center

Login

Don't have an account? Register now (free) for customized features, flight alerts, and more!